Henderson, Nevada Weather observations

Data are for observation ending at time listed.
 Day   Time    Ave.   Ave.  Ave.  Vector   Max.   Stn.    Total    Solar   Ave.  
  of    of     Air    Rel.  Wind   Wind    Wind   Baro.  Precip.   Rad.    Soil  
Year   Day     Temp.  Hum.  Speed  Dir.    Gust   Pres.                    Temp. 
2015   (PST)    F      %     mph   deg.    mph     mb.     in.     W/m2     F   
------------------------------------------------------------------------------
 142    0:00   67.4    24    1.9   137      4.5   931.4    0.00       0    64.4
 142    0:10   66.9    26    1.7   129      3.4   931.4    0.00       0    64.2
 142    0:20   66.6    26    2.4   141      5.4   931.4    0.00       0    64.0
 142    0:30   66.7    27    2.4   151      5.7   931.4    0.00       0    63.9
 142    0:40   66.3    27    1.9   157      5.6   931.4    0.00       0    63.7
 142    0:50   66.1    28    1.4   139      4.7   931.4    0.00       0    63.5
 142    1:00   65.6    29    0.6    18      1.8   931.5    0.00       0    63.0
 142    1:10   65.0    30    0.8   324      2.1   931.5    0.00       0    62.4
 142    1:20   64.2    31    1.8   297      4.5   931.6    0.00       0    61.8
 142    1:30   64.7    30    1.6   295      5.2   931.6    0.00       0    61.5
 142    1:40   64.7    31    1.4   270      3.8   931.7    0.00       0    61.5
 142    1:50   64.5    32    0.0    58      0.4   931.8    0.00       0    61.3
 142    2:00   64.2    33    1.4   196      4.5   931.8    0.00       0    61.1
 142    2:10   64.6    32    2.0   158      8.2   931.7    0.00       0    61.2
 142    2:20   65.0    31    2.3   141      5.1   931.7    0.00       0    61.6
 142    2:30   65.2    31    1.8   134      4.1   931.8    0.00       0    62.0
 142    2:40   64.9    32    1.6   158      4.5   931.9    0.00       0    62.2
 142    2:50   64.6    32    3.0   204      5.8   932.0    0.00       0    62.3
 142    3:00   64.5    31    2.7   201      4.6   932.0    0.00       0    62.3
 142    3:10   64.6    31    3.1   199      6.3   932.0    0.00       0    62.3
 142    3:20   64.4    31    4.0   186      9.0   932.0    0.00       0    62.3
 142    3:30   64.0    33    3.4   174      8.7   932.2    0.00       0    62.2
 142    3:40   63.4    36    2.8   164      7.5   932.2    0.00       0    62.0
 142    3:50   63.4    36    2.7   145      7.0   932.2    0.00       0    61.9
 142    4:00   63.4    36    2.9   163      6.9   932.2    0.00       0    61.8
 142    4:10   63.4    35    2.4   168      6.4   932.3    0.00       0    61.7
 142    4:20   63.2    35    2.6   158      9.7   932.4    0.00       0    61.3
 142    4:30   62.9    36    2.5   155      6.6   932.4    0.00       2    60.9
 142    4:40   62.9    35    1.3   134      3.0   932.5    0.00       8    60.6
 142    4:50   62.7    37    2.0   152      6.1   932.6    0.00      22    60.2
 142    5:00   63.0    38    2.4   179      6.2   932.7    0.00      41    60.2
 142    5:10   62.7    39    2.9   196      6.3   932.9    0.00      47    60.3
 142    5:20   62.7    40    2.0   168      6.4   933.0    0.00      73    60.2
 142    5:30   62.6    41    1.5   137      3.4   932.9    0.00      71    60.2
 142    5:40   62.5    40    1.4   158      3.8   933.0    0.00      75    60.2
 142    5:50   63.4    38    2.4   117      5.2   933.0    0.00     190    60.8
 142    6:00   65.1    36    1.8   117      4.5   933.1    0.00     246    62.9
 142    6:10   65.5    36    1.8   123      4.2   933.3    0.00     218    64.8
 142    6:20   64.7    37    2.0   118      5.0   933.3    0.00     123    65.3
 142    6:30   64.5    37    1.9   129      4.2   933.4    0.00     122    64.9
 142    6:40   64.6    36    1.7   174      5.7   933.5    0.00     136    64.8
 142    6:50   64.9    35    2.2   185      7.0   933.5    0.00     149    64.9
 142    7:00   65.1    34    2.7   185      7.2   933.5    0.00     161    65.1
 142    7:10   65.3    35    1.8   161      4.7   933.6    0.00     261    65.6
 142    7:20   66.4    34    2.4   170      6.3   933.7    0.00     334    66.9
 142    7:30   67.7    33    3.1   194      7.9   933.7    0.00     600    69.0
 142    7:40   68.6    32    2.6   196      8.2   933.8    0.00     447    71.7
 142    7:50   68.8    32    2.2   174      6.4   933.9    0.00     608    72.7
 142    8:00   69.5    30    2.2   184      7.5   933.9    0.00     468    74.7
 142    8:10   69.0    31    1.9   183      7.8   934.0    0.00     417    74.6
 142    8:20   69.0    31    3.2   146      7.9   934.0    0.00     396    74.2
 142    8:30   69.3    31    3.4   192      9.3   933.9    0.00     579    74.3
 142    8:40   71.1    29    4.4   109      9.8   933.8    0.00     973    76.7
 142    8:50   70.6    30    3.7   102     11.5   933.8    0.00     525    78.5
 142    9:00   69.7    31    5.3   103     12.4   933.7    0.00     452    77.3
 142    9:10   70.1    30    5.6   108     14.2   933.7    0.00     411    76.2
 142    9:20   70.4    30    3.3   128      8.3   933.7    0.00     482    75.9
 142    9:30   70.5    30    2.5   125      6.6   933.7    0.00     416    76.0
 142    9:40   70.4    30    5.0   163     14.2   933.7    0.00     567    76.1
 142    9:50   71.6    29    4.6   137     10.6   933.8    0.00     880    77.0
 142   10:00   72.2    28    4.4   152      9.3   933.9    0.00     932    78.5
 142   10:10   73.9    26    4.7   168     13.1   933.9    0.00    1169    81.0
 142   10:20   72.2    27    5.3   119     12.1   933.8    0.00     567    81.6
 142   10:30   72.0    27    3.5   167     11.0   933.7    0.00     769    80.0
 142   10:40   73.3    25    5.7   185     13.3   933.6    0.00    1018    80.5
 142   10:50   74.3    25    5.2   119     12.9   933.5    0.00     826    82.0
 142   11:00   73.0    26    6.1   135     13.4   933.3    0.00     996    80.9
 142   11:10   74.2    24    4.6   142     10.2   933.2    0.00    1059    81.2
 142   11:20   74.4    23    2.8   182     11.2   933.1    0.00    1039    81.5
 142   11:30   74.9    22    3.7   208     11.7   933.0    0.00    1122    82.3
 142   11:40   75.1    23    3.4   152      9.8   932.9    0.00    1025    82.6
 142   11:50   74.3    23    3.5   105      8.0   932.7    0.00     929    82.0
 142   12:00   76.4    20    2.8   180      7.6   932.6    0.00    1228    82.4
 142   12:10   76.8    19    4.0   181     13.5   932.6    0.00    1329    83.5
 142   12:20   76.7    19    3.2   142      7.2   932.6    0.00     733    84.3
 142   12:30   73.9    27    7.8   277     15.6   932.6    0.00     405    83.0
 142   12:40   71.3    30    9.1   285     16.9   932.6    0.00     384    80.8
 142   12:50   71.0    30    9.6   276     17.5   932.5    0.00     319    78.8
 142   13:00   70.8    30    8.2   276     13.7   932.4    0.00     293    77.2
 142   13:10   69.7    38    9.7   269     17.6   932.4    0.00     433    74.1
 142   13:20   70.6    36    7.5   272     14.9   932.4    0.00     774    72.7
 142   13:30   71.2    32    6.1   271     12.5   932.5    0.00     421    74.5
 142   13:40   71.6    29    5.1   265      9.8   932.6    0.00     377    74.9
 142   13:50   73.1    28    4.9   279      9.5   932.6    0.00     755    75.9
 142   14:00   73.7    26    4.9   290     11.1   932.5    0.00     712    77.7
 142   14:10   74.3    25    4.5   303      8.6   932.4    0.00     714    79.1
 142   14:20   73.3    25    3.7   280      7.6   932.5    0.00     348    79.3
 142   14:30   72.9    26    3.7   262      9.2   932.6    0.00     254    78.2
 142   14:40   71.7    29    6.0   203     18.6   932.8    0.00     214    77.4
 142   14:50   70.4    30    7.0   196     15.8   932.9    0.00     249    76.0
 142   15:00   69.9    30    6.7   171     15.6   933.0    0.00     245    75.0
 142   15:10   69.3    32    6.9   167     17.7   932.9    0.00     296    74.0
 142   15:20   69.4    32    6.9   168     19.9   932.9    0.00     472    73.3
 142   15:30   70.8    30    9.1   184     18.3   932.9    0.00     654    74.0
 142   15:40   71.1    30    8.3   183     15.4   933.0    0.00     619    75.1
 142   15:50   71.6    28    8.0   193     15.1   933.1    0.00     454    75.7
 142   16:00   70.9    28    7.8   192     16.0   933.1    0.00     431    75.2
 142   16:10   71.4    29    6.7   191     16.1   933.1    0.00     476    75.4
 142   16:20   71.7    29    6.0   179     15.0   933.2    0.00     384    75.8
 142   16:30   70.8    29    4.7   199     13.3   933.2    0.00     278    75.2
 142   16:40   72.5    28    3.9   212     14.6   933.2    0.00     455    75.3
 142   16:50   72.7    28    5.3   200     14.4   933.4    0.00     412    76.1
 142   17:00   72.2    29    4.7   225     11.6   933.4    0.00     334    76.3
 142   17:10   72.1    29    3.2   236      9.9   933.4    0.00     300    76.1
 142   17:20   71.2    30    4.9   241     13.7   933.4    0.00     178    75.7
 142   17:30   69.7    31    4.9   239     13.7   933.4    0.00      84    74.3
 142   17:40   69.4    31    4.2   238     10.9   933.4    0.00     114    72.7
 142   17:50   69.3    31    3.6   231      9.1   933.4    0.00     109    71.6
 142   18:00   69.5    31    2.8   221      7.9   933.6    0.00      66    70.9
 142   18:10   68.8    32    3.6   233     10.2   933.7    0.00      45    70.0
 142   18:20   68.3    33    2.8   222      7.8   933.8    0.00      32    69.1
 142   18:30   67.9    34    3.5   264      7.7   933.8    0.00      23    68.2
 142   18:40   67.4    34    4.0   262      8.0   934.0    0.00      10    67.3
 142   18:50   67.1    35    2.1   218      5.9   934.1    0.00       6    66.4
 142   19:00   66.7    35    3.2   219      7.3   934.2    0.00       0    65.7
 142   19:10   66.3    36    2.4   212      6.6   934.2    0.00       0    65.1
 142   19:20   66.4    36    2.6   210      6.1   934.3    0.00       0    64.4
 142   19:30   66.1    36    1.9   211      5.9   934.2    0.00       0    64.0
 142   19:40   65.7    36    2.5   218      6.1   934.3    0.00       0    63.5
 142   19:50   65.8    36    2.8   196      6.0   934.3    0.00       0    63.2
 142   20:00   65.5    36    2.2   174      5.6   934.4    0.00       0    62.9
 142   20:10   65.2    37    1.3   157      3.7   934.5    0.00       0    62.5
 142   20:20   64.9    37    1.4   135      3.6   934.7    0.00       0    62.1
 142   20:30   64.9    37    1.6   111      3.9   934.8    0.00       0    61.6
 142   20:40   65.0    38    2.6   106      4.6   934.9    0.00       0    61.6
 142   20:50   65.2    37    3.0   121      5.4   934.9    0.00       0    61.7
 142   21:00   64.6    39    2.3   126      4.1   934.8    0.00       0    61.9
 142   21:10   63.8    41    1.4   172      3.9   935.0    0.00       0    61.5
 142   21:20   63.0    41    1.0   217      3.2   935.0    0.00       0    60.8
 142   21:30   63.3    40    2.4   207      4.8   935.0    0.00       0    60.5
 142   21:40   64.1    39    3.0   123      7.0   935.1    0.00       0    60.8
 142   21:50   64.0    40    2.5   123      5.1   935.1    0.00       0    61.2
 142   22:00   63.2    41    1.5   123      3.7   935.1    0.00       0    61.0
 142   22:10   62.7    42    0.8   140      2.5   935.1    0.00       0    60.5
 142   22:20   62.8    42    1.3   139      3.5   935.1    0.00       0    60.1
 142   22:30   62.7    42    1.6   135      4.5   935.1    0.00       0    59.8
 142   22:40   62.4    42    1.3   145      3.1   935.1    0.00       0    59.5
 142   22:50   62.2    43    1.4   142      2.9   935.1    0.00       0    59.0
 142   23:00   62.1    43    1.3   149      3.4   935.2    0.00       0    58.9

Return to Henderson, Nevada graphs page.


Western Regional Climate Center,wrcc@dri.edu